x

Lake Winnipeg Narrows (45145) Wave Buoy

12:00am - Wed 1st Oct 2014 All times are UTC.

  • Sig Wave height 1.6ft
  • Peak Period 3s
  • Wind
    18mph, 20mph gusts
  • Sea Temp 57°f
  • Air Temp 58°f
  • Sea Pressure 1007.7mb

More Historic Weather Station data

Upgrade to MSW Pro to gain access to the past 30 days of data for over 8000 Wavebouys and Weather Stations around the globe.

Join Pro

Comparision Forecast

View Surf forecast
   
Wed 10/01 12:00am 1.6ft 3s 18 20 mph 1007.7mb 57f 58f
Tue 09/30 11:00pm 1.6ft 3s 18 22 mph 1008.4mb 57f 58f
10:00pm 1.6ft 3s 18 22 mph 1008.8mb 57f 58f
9:00pm 1.6ft 3s 18 22 mph 1009.5mb 57f 57f
8:00pm 1.6ft 3s 18 22 mph 1010.6mb 57f 55f
7:00pm 2ft 3s 20 22 mph 1011.5mb 57f 52f
5:00pm 2.5ft 3s 22 27 mph 1013.6mb 57f 50f
4:00pm 2ft 3s 25 29 mph 1013.7mb 57f 50f
2:00pm 2ft 3s 16 20 mph 1014.7mb 57f 52f
1:00pm 1.6ft 3s 16 20 mph 1015.1mb 57f 52f
12:00pm 1.3ft 3s 16 22 mph 1015.8mb 57f 53f
11:00am 1.6ft 3s 16 18 mph 1016.1mb 57f 53f
10:00am 1.6ft 3s 18 20 mph 1016.5mb 57f 53f
9:00am 1.6ft 3s 18 22 mph 1017mb 57f 52f
8:00am 2ft 3s 16 20 mph 1017.6mb 57f 52f
7:00am 2ft 3s 18 27 mph 1018.1mb 57f 51f
6:00am 2ft 3s 22 27 mph 1018.3mb 57f 51f
5:00am 2ft 4s 18 22 mph 1018.6mb 57f 51f
4:00am 2ft 3s 20 27 mph 1019.1mb 57f 50f
2:00am 2ft 3s 18 25 mph 1020.3mb 57f 50f
1:00am 1.6ft 3s 18 27 mph 1020.8mb 57f 49f
12:00am 1.3ft 3s 18 22 mph 1021.4mb 57f 49f
Mon 09/29 11:00pm 1ft 2s 16 22 mph 1022mb 57f 48f
10:00pm 0.7ft 2s 11 18 mph 1022.9mb 57f 48f
9:00pm 0.7ft 2s 7 13 mph 1023.8mb 58f 46f
8:00pm 0.7ft 2s 11 16 mph 1024.4mb 58f 46f
7:00pm 0.7ft 2s 11 13 mph 1025.5mb 58f 45f
6:00pm 0.7ft 2s 11 13 mph 1026.4mb 57f 44f
5:00pm 1ft 2s 9 13 mph 1027.3mb 57f 44f
4:00pm 1ft 2s 13 16 mph 1027.4mb 57f 44f
3:00pm 1ft 2s 13 18 mph 1027.8mb 57f 44f
2:00pm 1ft 3s 13 16 mph 1027.9mb 56f 44f
1:00pm 1ft 2s 13 16 mph 1028.2mb 56f 44f
12:00pm 1ft 2s 11 13 mph 1028.3mb 56f 43f
11:00am 0.7ft 2s 13 16 mph 1028.5mb 56f 43f
10:00am 0.7ft 2s 11 13 mph 1029.1mb 57f 43f
9:00am 0.7ft 2s 11 13 mph 1029.2mb 57f 42f
8:00am 0.7ft 2s 9 11 mph 1029.8mb 57f 43f
7:00am 1ft 2s 13 16 mph 1029.7mb 57f 43f
6:00am 1ft 2s 13 16 mph 1029.8mb 57f 44f
5:00am 1ft 3s 13 18 mph 1030mb 57f 45f
4:00am 1ft 3s 16 18 mph 1029.9mb 57f 46f
3:00am 1ft 3s 16 20 mph 1030.1mb 57f 47f
2:00am 1.3ft 3s 13 18 mph 1030.2mb 57f 47f
1:00am 1.3ft 3s 13 18 mph 1029.8mb 57f 48f
12:00am 1.3ft 3s 18 25 mph 1029.4mb 57f 49f
Sun 09/28 11:00pm 1.3ft 3s 13 18 mph 1029.2mb 58f 49f
10:00pm 1.3ft 3s 16 20 mph 1029.1mb 58f 49f
9:00pm 1.3ft 3s 13 18 mph 1028.9mb 57f 49f
8:00pm 1.3ft 4s 13 16 mph 1028.8mb 57f 49f
7:00pm 1.6ft 4s 13 20 mph 1028.9mb 57f 48f
6:00pm 1.6ft 3s 16 22 mph 1029mb 57f 47f
5:00pm 2ft 4s 16 20 mph 1028.7mb 57f 47f
4:00pm 2ft 4s 16 20 mph 1028.4mb 57f 47f
3:00pm 2.5ft 4s 20 22 mph 1027.9mb 57f 47f
2:00pm 2ft 4s 20 25 mph 1027.3mb 57f 47f
12:00pm 2ft 4s 20 25 mph 1025.8mb 57f 48f
11:00am 2ft 4s 20 25 mph 1025.4mb 58f 49f
10:00am 2ft 4s 20 22 mph 1025.1mb 58f 49f
9:00am 2ft 4s 18 20 mph 1025.4mb 58f 50f
8:00am 2.5ft 4s 16 20 mph 1025.1mb 58f 51f
7:00am 2.5ft 3s 18 22 mph 1024.5mb 58f 51f
6:00am 2.5ft 4s 20 25 mph 1023.6mb 58f 53f
5:00am 2.5ft 4s 18 22 mph 1022.8mb 58f 54f
4:00am 2.5ft 4s 20 22 mph 1022.3mb 58f 56f
3:00am 3ft 4s 18 20 mph 1021.6mb 58f 57f
2:00am 3ft 4s 20 25 mph 1021.1mb 58f 56f
1:00am 3ft 4s 20 22 mph 1020.7mb 58f 57f
12:00am 3ft 4s 20 25 mph 1020.2mb 58f 57f
Sat 09/27 11:00pm  -   -  20
mph
1019.3mb - 58f
10:00pm 2.5ft 4s 18 22 mph 1018.8mb 58f 58f
9:00pm 2.5ft 4s 16 20 mph 1018.1mb 58f 58f
8:00pm 2.5ft 4s 18 22 mph 1017.6mb 58f 58f
7:00pm 3ft 4s 18 22 mph 1017mb 58f 58f
6:00pm 2.5ft 4s 16 18 mph 1016.6mb 58f 58f
5:00pm 2.5ft 4s 18 22 mph 1015.7mb 58f 59f
4:00pm 2.5ft 3s 20 25 mph 1015.2mb 58f 59f
3:00pm 1.3ft 2s 22 27 mph 1013.8mb 58f 60f
2:00pm 0.3ft 3s 11 13 mph 1012.6mb 58f 61f
1:00pm 0.3ft 2s 11 13 mph 1011.9mb 58f 61f
12:00pm 0.7ft 3s 7 9 mph 1011.3mb 58f 61f
11:00am 1ft 3s 9 11 mph 1010.7mb 58f 62f
10:00am 1.3ft 3s 9 11 mph 1010.3mb 58f 62f
9:00am 2ft 4s 11 13 mph 1009.8mb 58f 63f
8:00am 2.5ft 4s 16 18 mph 1009.5mb 58f 64f
7:00am  -   -  18
mph
1009.3mb - 65f
6:00am 2.5ft 4s 20 25 mph 1009.5mb 58f 66f
5:00am 2.5ft 4s 22 25 mph 1009.5mb 58f 68f
4:00am 2ft 3s 18 22 mph 1009.8mb 58f 68f
3:00am  -   -  20
mph
1009.8mb - 69f
2:00am 1.6ft 3s 18 20 mph 1009.8mb 58f 69f